TYR weather

Public forecast

Using degrees Fahrenheit for public forecast. Weather courtesy of forecast.io.

Current aviation weather report (METAR) for Tyler Pounds Regional Airport

Retrieved 2020/08/10 04:53 UTC (48 minutes ago):

KTYR 100453Z AUTO 17008KT 10SM CLR 29/22 A3004 RMK AO2 SLP161 T02890222

Aviation forecast (TAF) for Tyler Pounds Regional Airport

Retrieved 2020-08-10 00:24 UTC (5 hours ago):

TAF KTYR 092322Z 1000/1024 19007KT P6SM SKC FM101300 21008KT P6SM SCT015 FM101700 20010KT P6SM SCT040